Pagrindinis puslapis
METAR-TAF:

METAR-TAF

Oro uostai :

Makasas, Ekvadoras

platuma: 02-17-57-S, ilguma: 078-07-15-W, Aukštis: 1052 m

Dabartinis oras

Ataskaita buvo paskelbta 21 minutes, ne 14:00 UTC
Vėjas 2 kt iš Šiaurės Rytų
Temperatūra 21°C
Drėgmė 88%
Slėgis 1018 hPa
Matomumas 10 km arba daugiau
Mažai debesys ne aukštis 2600 ft
Su prošvaistėmis ne aukštis 23000 ft

METAR: SEMC 201400Z 04002KT 9999 FEW026 BKN230 21/19 Q1018 RMK A3006

Laikas: 09:21 (14:21 UTC)


TAF: trūkstamas

Orai ataskaitas ir orų prognozės (METAR, TAF).

turimą stotys yra geltonos ir raudonos taškus žemėlapyje.

Perkelti pele per norėdami pamatyti stoties vardą.

Tada spustelėkite, norėdami matyti oro stebėjimo ir prognozės.

Norėdami pakeisti žemėlapį: spustelėkite ant žalios mygtukų su juodo kryžiaus žemyn,; žalią mygtuką su brūkšneliu, jei norite nutolinti; arba žalių rodyklių gretimoms žemėlapius.


METAR-TAF: